Time;durP1;ratioP1;P1;durP2;ratioP2;P2;SDS_P1;SDS_P2;PMS_P1;PMS_P2;Temp;Humidity;BMP_temperature;BMP_pressure;BME280_temperature;BME280_humidity;BME280_pressure;Samples;Min_cycle;Max_cycle;Signal;HPM_P1;HPM_P2
2022/09/14 00:01:22;;;;;;;26.98;25.65;;;;;;;13.88;97.02;100826.78;5072681;28;20488;-76
2022/09/14 00:03:51;;;;;;;32.72;31.50;;;;;;;13.82;97.92;100825.63;5072918;28;20023;-76
2022/09/14 00:06:17;;;;;;;37.25;35.67;;;;;;;13.74;99.12;100837.13;5069594;28;20024;-76
2022/09/14 00:08:42;;;;;;;37.83;36.42;;;;;;;13.57;98.99;100809.81;5078966;28;20115;-77
2022/09/14 00:11:11;;;;;;;38.22;36.60;;;;;;;13.57;99.48;100828.38;5072597;28;20024;-77
2022/09/14 00:13:38;;;;;;;43.85;42.08;;;;;;;13.53;99.53;100829.72;5079057;28;20070;-77
2022/09/14 00:16:06;;;;;;;47.08;45.38;;;;;;;13.53;100.00;100837.66;5075687;28;20033;-79
2022/09/14 00:18:33;;;;;;;43.55;41.90;;;;;;;13.50;100.00;100835.38;5071695;28;20028;-79
2022/09/14 00:21:05;;;;;;;40.15;38.60;;;;;;;13.52;100.00;100843.13;5073693;28;20119;-78
2022/09/14 00:23:31;;;;;;;38.25;36.72;;;;;;;13.53;100.00;100829.72;5074517;28;20118;-77
2022/09/14 00:26:05;;;;;;;41.53;39.78;;;;;;;13.45;100.00;100836.84;5073478;28;20099;-76
2022/09/14 00:28:36;;;;;;;42.53;40.58;;;;;;;13.32;100.00;100816.97;5074921;28;20029;-77
2022/09/14 00:31:03;;;;;;;43.72;42.13;;;;;;;13.45;100.00;100824.41;5076062;28;20081;-78
2022/09/14 00:33:29;;;;;;;40.45;38.75;;;;;;;13.38;100.00;100810.19;5080827;28;20025;-77
2022/09/14 00:35:54;;;;;;;39.42;37.97;;;;;;;13.49;100.00;100817.78;5069168;28;20094;-77
2022/09/14 00:38:19;;;;;;;37.55;36.03;;;;;;;13.46;100.00;100801.41;5076144;28;20082;-77
2022/09/14 00:40:55;;;;;;;39.15;37.65;;;;;;;13.72;100.00;100822.38;5070172;28;20121;-78
2022/09/14 00:43:21;;;;;;;36.17;34.53;;;;;;;13.76;100.00;100819.22;5075759;28;20050;-78
2022/09/14 00:45:46;;;;;;;40.20;38.67;;;;;;;13.70;100.00;100796.00;5074181;28;20039;-78
2022/09/14 00:48:11;;;;;;;33.88;32.60;;;;;;;13.88;100.00;100817.00;5060589;28;20071;-77
2022/09/14 00:50:38;;;;;;;30.65;29.48;;;;;;;13.95;99.45;100812.63;5072440;28;20048;-77
2022/09/14 00:53:04;;;;;;;28.75;27.45;;;;;;;14.04;99.11;100815.25;5072924;28;20447;-77
2022/09/14 00:55:31;;;;;;;26.92;25.77;;;;;;;13.90;99.50;100796.44;5076113;28;20024;-77
2022/09/14 00:57:56;;;;;;;27.95;26.88;;;;;;;13.90;99.53;100783.16;5076707;28;20480;-78
2022/09/14 01:00:25;;;;;;;28.30;27.20;;;;;;;14.06;99.63;100802.66;5063308;28;20043;-75
2022/09/14 01:02:50;;;;;;;23.65;22.65;;;;;;;14.02;100.00;100799.50;5073389;28;20035;-75
2022/09/14 01:05:17;;;;;;;22.98;22.10;;;;;;;13.95;99.59;100779.97;5074730;28;20020;-75
2022/09/14 01:07:52;;;;;;;21.65;20.80;;;;;;;14.08;99.32;100790.03;5070902;28;20029;-75
2022/09/14 01:10:23;;;;;;;22.83;21.40;;;;;;;14.07;99.83;100788.41;5072564;28;20107;-74
2022/09/14 01:13:13;;;;;;;25.67;24.67;;;;;;;13.92;100.00;100778.50;5071342;28;20025;-75
2022/09/14 01:15:51;;;;;;;21.15;20.35;;;;;;;13.95;100.00;100780.81;5073779;28;20035;-75
2022/09/14 01:18:28;;;;;;;22.45;21.52;;;;;;;13.98;100.00;100777.81;5077102;28;20063;-75
2022/09/14 01:21:00;;;;;;;25.23;24.27;;;;;;;13.92;100.00;100773.19;5070215;28;20055;-75
2022/09/14 01:23:32;;;;;;;23.60;22.65;;;;;;;13.96;100.00;100782.47;5074596;28;20020;-74
2022/09/14 01:26:15;;;;;;;19.92;19.08;;;;;;;13.98;100.00;100787.63;5077501;28;20052;-76
2022/09/14 01:29:00;;;;;;;19.73;18.73;;;;;;;13.87;100.00;100762.28;5059816;28;20031;-75
2022/09/14 01:31:33;;;;;;;19.60;18.75;;;;;;;13.96;100.00;100771.84;5071802;28;20043;-75
2022/09/14 01:34:33;;;;;;;20.67;19.65;;;;;;;13.87;100.00;100761.44;5069264;28;20495;-75
2022/09/14 01:37:05;;;;;;;17.85;17.17;;;;;;;14.03;100.00;100768.50;5070242;28;20377;-75
2022/09/14 01:39:32;;;;;;;19.05;18.25;;;;;;;14.05;100.00;100763.84;5070558;28;20024;-75
2022/09/14 01:42:00;;;;;;;20.88;19.67;;;;;;;14.07;100.00;100769.81;5073566;28;20042;-75
2022/09/14 01:44:31;;;;;;;19.55;18.83;;;;;;;14.13;100.00;100777.06;5076108;28;20384;-75
2022/09/14 01:47:08;;;;;;;20.05;19.17;;;;;;;14.21;99.96;100766.41;5074308;28;20044;-75
2022/09/14 01:49:43;;;;;;;18.45;17.67;;;;;;;14.25;98.39;100759.75;5075003;28;20562;-75
2022/09/14 01:52:15;;;;;;;17.25;16.60;;;;;;;14.27;97.03;100746.31;5074092;28;20017;-75
2022/09/14 01:54:58;;;;;;;17.17;16.40;;;;;;;14.36;98.08;100759.31;5076248;28;20107;-75
2022/09/14 01:57:39;;;;;;;18.20;17.30;;;;;;;14.37;98.81;100760.16;5079300;28;20021;-75
2022/09/14 02:00:09;;;;;;;17.25;16.35;;;;;;;14.31;98.67;100748.41;5081173;28;20016;-75
2022/09/14 02:03:00;;;;;;;14.45;13.63;;;;;;;14.37;98.31;100758.34;5079059;28;20115;-75
2022/09/14 02:05:36;;;;;;;16.00;15.30;;;;;;;14.32;98.82;100747.41;5077281;28;20023;-75
2022/09/14 02:08:02;;;;;;;14.35;13.73;;;;;;;14.22;99.10;100740.69;5088396;28;20025;-75
2022/09/14 02:10:28;;;;;;;17.83;16.60;;;;;;;14.06;100.00;100731.00;5076398;28;20024;-75
2022/09/14 02:12:54;;;;;;;17.70;16.80;;;;;;;13.96;100.00;100734.72;5061138;28;20392;-75
2022/09/14 02:15:21;;;;;;;17.00;16.33;;;;;;;14.03;100.00;100745.44;5080758;28;20060;-75
2022/09/14 02:17:47;;;;;;;19.30;18.50;;;;;;;13.98;100.00;100756.59;5079401;28;20023;-75
2022/09/14 02:20:31;;;;;;;21.30;20.50;;;;;;;14.02;100.00;100749.09;5078039;28;20028;-75
2022/09/14 02:22:56;;;;;;;19.65;18.88;;;;;;;13.93;100.00;100732.38;5075580;28;20033;-75
2022/09/14 02:25:22;;;;;;;20.20;19.33;;;;;;;14.02;100.00;100746.44;5073254;28;20012;-75
2022/09/14 02:27:47;;;;;;;16.20;15.57;;;;;;;14.12;100.00;100738.25;5061881;28;20427;-75
2022/09/14 02:30:14;;;;;;;17.60;16.90;;;;;;;14.19;100.00;100741.84;5079247;28;20431;-75
2022/09/14 02:32:50;;;;;;;19.10;18.30;;;;;;;14.24;99.15;100733.38;5074934;28;20084;-75
2022/09/14 02:35:24;;;;;;;16.63;15.82;;;;;;;14.33;98.98;100734.97;5075435;28;20795;-75
2022/09/14 02:38:11;;;;;;;16.98;16.27;;;;;;;14.36;99.03;100737.28;5076937;28;20075;-75
2022/09/14 02:40:42;;;;;;;16.33;15.68;;;;;;;14.31;99.37;100729.03;5068816;28;20021;-75
2022/09/14 02:43:49;;;;;;;15.88;15.27;;;;;;;14.31;100.00;100732.50;5074235;28;20024;-75
2022/09/14 02:46:28;;;;;;;14.90;14.30;;;;;;;14.34;100.00;100716.19;5001097;28;20049;-75
2022/09/14 02:48:58;;;;;;;14.50;13.88;;;;;;;14.41;99.47;100726.94;4996879;28;20048;-75
2022/09/14 02:51:36;;;;;;;15.57;15.00;;;;;;;14.44;98.57;100726.59;4981805;28;20105;-75
2022/09/14 02:54:13;;;;;;;14.98;14.38;;;;;;;14.45;98.28;100728.22;4980043;28;20503;-74
2022/09/14 02:56:39;;;;;;;15.13;14.52;;;;;;;14.46;98.91;100721.09;4997650;28;20068;-76
2022/09/14 02:59:04;;;;;;;16.98;16.17;;;;;;;14.45;99.20;100716.78;4966440;28;20033;-74
2022/09/14 03:01:30;;;;;;;15.07;14.48;;;;;;;14.39;99.46;100713.00;4998393;28;20042;-74
2022/09/14 03:03:55;;;;;;;14.70;14.10;;;;;;;14.46;99.61;100716.63;4982321;28;20410;-74
2022/09/14 03:06:21;;;;;;;14.18;13.65;;;;;;;14.47;98.54;100715.59;4961205;28;20045;-74
2022/09/14 03:08:47;;;;;;;15.40;14.82;;;;;;;14.56;98.36;100721.69;4979652;28;20033;-74
2022/09/14 03:11:13;;;;;;;14.52;13.95;;;;;;;14.51;98.17;100705.47;4983128;28;20033;-74
2022/09/14 03:13:39;;;;;;;15.73;15.13;;;;;;;14.62;98.22;100721.00;4981804;28;20034;-74
2022/09/14 03:16:10;;;;;;;15.63;14.82;;;;;;;14.63;98.34;100719.97;4998433;28;20121;-74
2022/09/14 03:18:36;;;;;;;13.43;12.68;;;;;;;14.58;97.40;100706.41;4996831;28;20036;-74
2022/09/14 03:21:14;;;;;;;15.57;14.98;;;;;;;14.59;97.68;100697.47;5065680;28;20043;-74
2022/09/14 03:23:50;;;;;;;14.15;13.35;;;;;;;14.72;97.80;100718.91;5071908;28;20020;-74
2022/09/14 03:26:20;;;;;;;13.95;13.25;;;;;;;14.75;97.22;100715.88;5076471;28;20119;-74
2022/09/14 03:28:56;;;;;;;14.60;13.90;;;;;;;14.77;97.95;100708.56;5078725;28;20031;-73
2022/09/14 03:31:22;;;;;;;13.55;12.95;;;;;;;14.74;98.11;100714.25;5077200;28;20032;-73
2022/09/14 03:33:55;;;;;;;16.27;15.63;;;;;;;14.73;98.56;100711.75;5074052;28;20025;-74
2022/09/14 03:36:22;;;;;;;14.05;13.48;;;;;;;14.71;99.20;100705.81;5076686;28;20408;-74
2022/09/14 03:38:50;;;;;;;15.30;14.38;;;;;;;14.54;99.59;100679.34;5073096;28;20036;-74
2022/09/14 03:41:15;;;;;;;14.90;14.07;;;;;;;14.59;100.00;100697.47;5075163;28;20024;-74
2022/09/14 03:43:42;;;;;;;15.93;15.18;;;;;;;14.62;100.00;100697.09;5072582;28;20021;-74
2022/09/14 03:46:12;;;;;;;14.82;14.02;;;;;;;14.63;100.00;100693.41;5074867;28;20085;-74
2022/09/14 03:48:38;;;;;;;15.57;14.87;;;;;;;14.56;100.00;100684.53;5076353;28;20020;-74
2022/09/14 03:51:05;;;;;;;16.27;15.38;;;;;;;14.60;100.00;100691.13;5062202;28;20344;-75
2022/09/14 03:53:32;;;;;;;18.75;17.85;;;;;;;14.50;100.00;100685.19;5078024;28;20029;-75
2022/09/14 03:55:57;;;;;;;18.02;17.33;;;;;;;14.59;100.00;100692.16;5074315;28;20119;-74
2022/09/14 03:58:23;;;;;;;16.65;15.88;;;;;;;14.62;100.00;100675.84;5075420;28;20118;-74
2022/09/14 04:00:49;;;;;;;17.48;16.80;;;;;;;14.67;100.00;100689.38;5075429;28;20050;-75
2022/09/14 04:03:14;;;;;;;15.85;15.25;;;;;;;14.63;100.00;100663.38;5071310;28;20028;-76
2022/09/14 04:05:39;;;;;;;17.70;16.90;;;;;;;14.68;100.00;100680.44;5081189;28;20016;-73
2022/09/14 04:08:05;;;;;;;17.15;16.45;;;;;;;14.66;100.00;100677.13;5056201;28;20496;-73
2022/09/14 04:10:30;;;;;;;18.08;17.38;;;;;;;14.58;100.00;100653.31;5077225;28;20036;-73
2022/09/14 04:12:57;;;;;;;16.98;16.15;;;;;;;14.50;100.00;100654.19;5076767;28;20031;-73
2022/09/14 04:15:22;;;;;;;18.13;17.23;;;;;;;14.57;100.00;100678.22;5079115;28;20032;-73
2022/09/14 04:17:48;;;;;;;19.33;18.52;;;;;;;14.57;100.00;100670.25;5075903;28;20123;-73
2022/09/14 04:20:14;;;;;;;19.75;19.00;;;;;;;14.52;100.00;100677.88;5073580;28;20052;-73
2022/09/14 04:22:39;;;;;;;20.40;19.50;;;;;;;14.49;100.00;100681.72;5073972;28;20024;-73
2022/09/14 04:25:05;;;;;;;18.85;18.15;;;;;;;14.42;100.00;100680.00;5076162;28;20111;-73
2022/09/14 04:27:31;;;;;;;24.15;22.92;;;;;;;14.28;100.00;100655.03;5077879;28;20059;-74
2022/09/14 04:29:56;;;;;;;19.85;19.05;;;;;;;14.28;100.00;100669.13;5076841;28;20028;-74
2022/09/14 04:32:21;;;;;;;21.77;20.88;;;;;;;14.24;100.00;100667.84;5078015;28;20093;-75
2022/09/14 04:34:50;;;;;;;21.13;20.23;;;;;;;14.21;100.00;100668.19;5075126;28;20036;-74
2022/09/14 04:37:15;;;;;;;22.85;21.95;;;;;;;14.15;100.00;100655.63;5074309;28;20029;-74
2022/09/14 04:39:41;;;;;;;23.25;22.15;;;;;;;14.24;100.00;100657.22;5079913;28;20024;-74
2022/09/14 04:42:06;;;;;;;22.65;21.65;;;;;;;14.22;100.00;100661.91;5057754;28;20048;-74
2022/09/14 04:44:32;;;;;;;20.13;19.20;;;;;;;14.26;100.00;100671.13;5076461;28;20416;-74
2022/09/14 04:46:57;;;;;;;19.52;18.65;;;;;;;14.31;100.00;100660.81;5073845;28;20016;-74
2022/09/14 04:49:22;;;;;;;21.30;20.50;;;;;;;14.39;100.00;100666.06;5076724;28;20492;-75
2022/09/14 04:51:48;;;;;;;21.38;20.48;;;;;;;14.39;100.00;100663.41;5071691;28;20452;-74
2022/09/14 04:54:16;;;;;;;21.63;20.73;;;;;;;14.26;100.00;100668.47;5058929;28;20036;-73
2022/09/14 04:56:42;;;;;;;22.90;21.70;;;;;;;14.06;100.00;100648.75;5076767;28;20480;-73
2022/09/14 04:59:07;;;;;;;21.70;20.80;;;;;;;14.08;100.00;100668.78;5072941;28;20042;-74
2022/09/14 05:01:36;;;;;;;24.33;23.25;;;;;;;14.16;100.00;100665.25;5068915;28;20040;-74
2022/09/14 05:04:03;;;;;;;22.40;21.50;;;;;;;14.21;100.00;100652.25;5071817;28;20495;-74
2022/09/14 05:06:31;;;;;;;22.42;21.25;;;;;;;14.30;100.00;100661.00;5072445;28;20263;-74
2022/09/14 05:08:58;;;;;;;22.73;21.63;;;;;;;14.29;100.00;100657.50;5065825;28;20036;-74
2022/09/14 05:11:26;;;;;;;21.02;20.13;;;;;;;14.36;100.00;100654.97;5067111;28;20030;-74
2022/09/14 05:13:53;;;;;;;20.75;19.95;;;;;;;14.29;100.00;100652.22;5066751;28;20115;-74
2022/09/14 05:16:22;;;;;;;21.95;21.00;;;;;;;14.38;100.00;100668.88;5076334;28;20492;-74
2022/09/14 05:18:48;;;;;;;22.30;21.05;;;;;;;14.42;100.00;100664.06;5074416;28;20017;-74
2022/09/14 05:21:16;;;;;;;22.77;21.42;;;;;;;14.41;100.00;100660.56;5068291;28;20035;-74
2022/09/14 05:23:42;;;;;;;21.13;20.23;;;;;;;14.49;100.00;100667.63;5067514;28;20023;-74
2022/09/14 05:26:08;;;;;;;22.67;21.48;;;;;;;14.44;100.00;100662.03;5068832;28;20028;-75
2022/09/14 05:28:34;;;;;;;21.27;20.38;;;;;;;14.42;100.00;100662.22;5071455;28;20024;-74
2022/09/14 05:31:08;;;;;;;23.48;22.58;;;;;;;14.43;100.00;100660.38;5076309;28;20053;-73
2022/09/14 05:33:34;;;;;;;23.35;22.45;;;;;;;14.35;100.00;100640.88;5069244;28;20028;-73
2022/09/14 05:36:07;;;;;;;21.85;20.77;;;;;;;14.54;100.00;100657.28;5068449;28;20943;-73
2022/09/14 05:38:35;;;;;;;20.88;20.02;;;;;;;14.58;100.00;100653.31;5070020;28;20530;-73
2022/09/14 05:41:01;;;;;;;23.25;22.33;;;;;;;14.56;100.00;100636.72;5077292;28;20028;-73
2022/09/14 05:43:27;;;;;;;21.77;20.70;;;;;;;14.63;100.00;100640.28;5072662;28;20248;-73
2022/09/14 05:45:53;;;;;;;20.80;19.98;;;;;;;14.66;100.00;100636.47;5069974;28;20841;-73
2022/09/14 05:48:18;;;;;;;18.55;17.85;;;;;;;14.68;100.00;100629.97;5070678;28;20124;-73
2022/09/14 05:50:45;;;;;;;19.58;18.67;;;;;;;14.64;100.00;100612.75;5050663;28;20119;-73
2022/09/14 05:53:10;;;;;;;18.58;17.73;;;;;;;14.81;100.00;100632.81;5068748;28;20401;-73
2022/09/14 05:55:36;;;;;;;19.98;18.92;;;;;;;14.91;100.00;100642.31;5072951;28;20093;-73
2022/09/14 05:58:01;;;;;;;21.67;20.52;;;;;;;14.97;100.00;100647.72;5067389;28;20020;-73
2022/09/14 06:00:28;;;;;;;21.92;21.00;;;;;;;15.04;100.00;100647.00;5071046;28;20033;-73
2022/09/14 06:02:54;;;;;;;20.13;19.27;;;;;;;15.04;100.00;100631.88;5075343;28;20040;-73
2022/09/14 06:05:20;;;;;;;21.15;20.27;;;;;;;15.13;100.00;100640.56;5073034;28;20039;-73
2022/09/14 06:07:51;;;;;;;16.70;16.08;;;;;;;15.17;100.00;100647.19;5073549;28;20392;-73
2022/09/14 06:10:17;;;;;;;19.90;19.10;;;;;;;15.10;100.00;100631.13;5069934;28;20070;-73
2022/09/14 06:12:42;;;;;;;18.95;18.25;;;;;;;15.26;100.00;100646.06;5072885;28;20043;-71
2022/09/14 06:15:09;;;;;;;17.42;16.73;;;;;;;15.32;100.00;100645.31;5078711;28;20107;-72
2022/09/14 06:17:35;;;;;;;18.90;17.90;;;;;;;15.41;100.00;100643.38;5066591;28;20361;-72
2022/09/14 06:20:01;;;;;;;20.42;19.50;;;;;;;15.48;100.00;100641.59;5081375;28;20031;-72
2022/09/14 06:22:27;;;;;;;19.15;18.42;;;;;;;15.58;99.96;100642.16;5076712;28;20025;-72
2022/09/14 06:24:52;;;;;;;18.55;17.80;;;;;;;15.67;99.40;100644.69;5079138;28;20095;-72
2022/09/14 06:27:17;;;;;;;18.02;17.33;;;;;;;15.70;100.00;100647.81;5074494;28;20024;-72
2022/09/14 06:29:43;;;;;;;21.10;20.05;;;;;;;15.78;100.00;100631.75;5072258;28;20039;-72
2022/09/14 06:32:09;;;;;;;20.15;19.38;;;;;;;16.04;98.15;100641.00;5081414;28;20108;-72
2022/09/14 06:34:34;;;;;;;17.92;17.23;;;;;;;16.19;97.09;100646.25;5080955;28;20016;-72
2022/09/14 06:37:00;;;;;;;16.75;16.05;;;;;;;16.27;96.59;100646.13;5082539;28;20089;-72
2022/09/14 06:39:25;;;;;;;18.13;17.30;;;;;;;16.38;95.19;100653.59;5076269;28;20039;-72
2022/09/14 06:41:53;;;;;;;13.75;13.20;;;;;;;16.48;94.76;100661.22;5074196;28;20039;-72
2022/09/14 06:44:19;;;;;;;14.57;13.98;;;;;;;16.57;94.36;100664.56;5079064;28;20063;-72
2022/09/14 06:46:44;;;;;;;11.23;10.73;;;;;;;16.61;93.81;100660.50;5081291;28;20480;-72
2022/09/14 06:49:13;;;;;;;12.52;12.02;;;;;;;16.71;93.18;100653.00;5077906;28;20180;-72
2022/09/14 06:51:41;;;;;;;10.65;10.23;;;;;;;16.79;92.76;100646.72;5077435;28;20021;-72
2022/09/14 06:54:09;;;;;;;10.07;9.65;;;;;;;16.98;92.56;100647.84;5074658;28;20039;-72
2022/09/14 06:56:37;;;;;;;9.68;9.02;;;;;;;17.13;91.60;100648.53;5067991;28;20023;-72
2022/09/14 06:59:04;;;;;;;8.30;8.00;;;;;;;17.28;90.47;100646.56;5077019;28;20048;-72
2022/09/14 07:01:30;;;;;;;7.72;7.32;;;;;;;17.35;90.81;100643.09;5076928;28;20493;-72
2022/09/14 07:03:56;;;;;;;5.93;5.63;;;;;;;17.47;89.22;100654.84;5083277;28;20028;-72
2022/09/14 07:06:24;;;;;;;6.35;4.93;;;;;;;17.48;88.92;100652.00;5071984;28;20016;-72
2022/09/14 07:08:50;;;;;;;5.63;5.22;;;;;;;17.64;89.92;100664.16;5079867;28;20050;-72
2022/09/14 07:11:18;;;;;;;4.75;4.55;;;;;;;17.79;88.23;100668.47;5071155;28;20028;-72
2022/09/14 07:13:44;;;;;;;5.95;4.32;;;;;;;17.98;88.34;100675.75;5075947;28;20476;-72
2022/09/14 07:16:11;;;;;;;4.60;4.30;;;;;;;17.97;87.18;100667.94;5084432;28;20377;-72
2022/09/14 07:18:37;;;;;;;4.63;4.32;;;;;;;18.09;84.87;100664.47;5073006;28;20058;-72
2022/09/14 07:21:07;;;;;;;4.82;3.53;;;;;;;18.22;85.38;100665.50;5080067;28;20071;-72
2022/09/14 07:23:35;;;;;;;4.13;3.92;;;;;;;18.39;84.41;100666.72;5070111;28;20090;-72
2022/09/14 07:26:12;;;;;;;3.78;3.58;;;;;;;18.62;83.03;100689.56;5064735;28;20024;-72
2022/09/14 07:28:39;;;;;;;3.67;3.40;;;;;;;18.70;84.08;100686.66;5067158;28;20521;-72
2022/09/14 07:31:24;;;;;;;3.72;3.42;;;;;;;18.90;82.82;100683.97;5075975;28;20047;-72
2022/09/14 07:33:55;;;;;;;3.53;3.22;;;;;;;19.29;81.31;100677.72;5075900;28;20485;-72
2022/09/14 07:36:21;;;;;;;3.78;2.03;;;;;;;19.55;79.60;100681.28;5077484;28;20044;-72
2022/09/14 07:38:47;;;;;;;2.53;2.28;;;;;;;19.45;79.48;100672.91;5074730;28;20041;-72
2022/09/14 07:41:12;;;;;;;3.08;2.30;;;;;;;19.84;80.77;100681.81;5076895;28;20097;-72
2022/09/14 07:43:38;;;;;;;5.88;2.28;;;;;;;20.08;79.96;100673.00;5082081;28;20038;-72
2022/09/14 07:46:04;;;;;;;2.45;1.95;;;;;;;20.48;76.99;100683.38;5079481;28;20027;-72
2022/09/14 07:48:31;;;;;;;3.30;2.00;;;;;;;20.94;76.17;100673.28;5079157;28;20028;-72
2022/09/14 07:51:06;;;;;;;2.17;1.95;;;;;;;21.14;73.85;100667.69;5075206;28;20573;-72
2022/09/14 07:53:34;;;;;;;2.45;2.25;;;;;;;21.22;73.98;100663.91;5081758;28;20092;-72
2022/09/14 07:56:01;;;;;;;2.58;2.38;;;;;;;21.12;74.17;100665.25;5078620;28;20012;-72
2022/09/14 07:58:29;;;;;;;3.83;2.38;;;;;;;21.72;74.34;100664.50;5081300;28;20024;-72
2022/09/14 08:00:59;;;;;;;4.75;2.63;;;;;;;22.22;71.13;100660.69;5078132;28;20426;-72
2022/09/14 08:03:24;;;;;;;5.97;2.13;;;;;;;22.32;70.93;100662.78;5075020;28;20127;-72
2022/09/14 08:06:00;;;;;;;1.85;1.75;;;;;;;22.77;71.59;100656.84;5081531;28;20107;-72
2022/09/14 08:08:29;;;;;;;2.97;1.98;;;;;;;23.57;68.07;100671.44;5072410;28;20028;-72
2022/09/14 08:11:01;;;;;;;7.22;1.48;;;;;;;23.75;65.40;100668.56;5075546;28;20039;-72
2022/09/14 08:13:26;;;;;;;2.38;1.70;;;;;;;24.46;62.84;100673.53;5059172;28;20112;-74
2022/09/14 08:15:52;;;;;;;1.38;1.25;;;;;;;25.78;60.52;100673.63;5077618;28;20124;-74
2022/09/14 08:18:17;;;;;;;3.10;1.10;;;;;;;26.65;56.77;100671.66;5076281;28;20031;-74
2022/09/14 08:20:42;;;;;;;2.25;1.13;;;;;;;26.31;56.47;100662.19;5080252;28;20043;-74
2022/09/14 08:23:08;;;;;;;2.45;0.90;;;;;;;27.08;54.14;100631.75;5075254;28;20535;-74
2022/09/14 08:25:34;;;;;;;2.28;0.70;;;;;;;28.35;51.16;100650.41;5071746;28;20479;-74
2022/09/14 08:27:59;;;;;;;3.67;1.00;;;;;;;28.55;50.32;100658.56;5056773;28;20063;-74
2022/09/14 08:30:25;;;;;;;1.70;0.70;;;;;;;28.44;51.90;100655.03;5075437;28;20021;-74
2022/09/14 08:32:50;;;;;;;1.02;0.65;;;;;;;27.99;51.29;100653.16;5085426;28;20416;-74
2022/09/14 08:35:16;;;;;;;2.33;0.90;;;;;;;27.79;49.33;100654.75;5073907;28;20226;-74
2022/09/14 08:37:41;;;;;;;2.10;0.85;;;;;;;26.88;49.45;100664.19;5076492;28;20480;-74
2022/09/14 08:40:10;;;;;;;0.90;0.73;;;;;;;27.47;50.63;100661.19;5078687;28;20582;-74
2022/09/14 08:42:37;;;;;;;2.13;0.77;;;;;;;27.86;49.63;100657.22;5053671;28;20036;-74
2022/09/14 08:45:04;;;;;;;1.40;0.90;;;;;;;26.98;49.49;100658.00;5079438;28;20024;-74
2022/09/14 08:47:37;;;;;;;5.30;0.90;;;;;;;26.59;49.15;100648.34;5074369;28;20621;-74
2022/09/14 08:50:08;;;;;;;5.88;1.15;;;;;;;27.46;49.65;100647.91;5070436;28;20023;-74
2022/09/14 08:52:46;;;;;;;0.70;0.50;;;;;;;28.85;46.45;100627.78;5068473;28;20059;-74
2022/09/14 08:55:33;;;;;;;1.60;0.57;;;;;;;29.57;45.13;100651.06;5077560;28;20027;-74
2022/09/14 08:58:36;;;;;;;1.55;0.73;;;;;;;28.92;46.22;100649.22;5068622;28;20397;-74
2022/09/14 09:01:16;;;;;;;1.45;0.70;;;;;;;27.63;48.82;100643.06;5078363;28;20020;-73
2022/09/14 09:04:00;;;;;;;;;;;;;;;27.02;49.90;100646.41;5075340;28;20035;-73
2022/09/14 09:06:37;;;;;;;0.88;0.45;;;;;;;26.17;50.89;100640.97;5070805;28;19912;-73
2022/09/14 09:09:30;;;;;;;1.60;0.63;;;;;;;25.62;51.44;100644.78;5074710;28;20373;-73
2022/09/14 09:11:56;;;;;;;1.77;0.55;;;;;;;24.99;52.31;100626.22;5066204;28;20109;-73
2022/09/14 09:14:36;;;;;;;0.93;0.50;;;;;;;24.75;53.34;100627.56;5073431;28;20459;-73
2022/09/14 09:17:14;;;;;;;3.08;0.93;;;;;;;24.18;53.65;100633.97;5073415;28;20452;-73
2022/09/14 09:19:53;;;;;;;1.52;0.63;;;;;;;24.14;55.83;100644.44;5066178;28;20078;-73
2022/09/14 09:22:21;;;;;;;2.58;0.80;;;;;;;24.13;55.85;100632.03;5072858;28;20031;-74
2022/09/14 09:24:51;;;;;;;2.55;0.82;;;;;;;24.59;57.89;100624.66;5077732;28;20428;-73
2022/09/14 09:27:17;;;;;;;3.53;0.80;;;;;;;25.98;50.83;100599.16;5073485;28;20013;-73
2022/09/14 09:29:42;;;;;;;2.13;0.90;;;;;;;26.38;50.16;100617.59;5077976;28;20038;-73
2022/09/14 09:32:23;;;;;;;2.50;0.73;;;;;;;27.07;49.70;100613.91;5067545;28;20516;-72
2022/09/14 09:34:49;;;;;;;3.70;0.95;;;;;;;26.98;49.43;100625.50;5081436;28;20034;-72
2022/09/14 09:37:18;;;;;;;3.45;0.90;;;;;;;26.74;50.72;100625.97;5072148;28;20356;-73
2022/09/14 09:39:43;;;;;;;5.13;1.00;;;;;;;26.51;49.81;100627.13;5072284;28;20676;-73
2022/09/14 09:42:21;;;;;;;1.17;0.60;;;;;;;26.42;50.29;100628.72;5070424;28;20102;-73
2022/09/14 09:45:00;;;;;;;1.33;0.68;;;;;;;25.99;48.95;100619.75;5076218;28;20549;-73
2022/09/14 09:47:39;;;;;;;2.05;1.15;;;;;;;25.81;51.24;100623.63;5069571;28;20024;-72
2022/09/14 09:50:15;;;;;;;1.60;0.70;;;;;;;25.62;51.02;100631.28;5078353;28;20024;-72
2022/09/14 09:52:56;;;;;;;2.33;1.00;;;;;;;24.98;51.09;100597.63;5063748;28;20032;-72
2022/09/14 09:55:32;;;;;;;1.02;0.60;;;;;;;24.74;52.05;100615.94;5066823;28;20032;-72
2022/09/14 09:58:34;;;;;;;1.48;1.25;;;;;;;24.71;53.26;100621.81;5072575;28;20033;-72
2022/09/14 10:01:06;;;;;;;3.53;1.00;;;;;;;24.68;54.17;100613.44;5075406;28;20549;-72
2022/09/14 10:03:37;;;;;;;2.65;0.85;;;;;;;24.87;53.69;100617.47;5071197;28;20020;-72
2022/09/14 10:06:09;;;;;;;1.67;0.70;;;;;;;25.07;54.06;100586.38;5070937;28;20050;-72
2022/09/14 10:08:46;;;;;;;2.22;1.13;;;;;;;27.13;50.37;100617.41;5064058;28;20036;-72
2022/09/14 10:11:36;;;;;;;2.50;1.10;;;;;;;28.39;48.85;100618.91;5068988;28;20036;-73
2022/09/14 10:14:04;;;;;;;2.35;0.90;;;;;;;28.42;46.98;100615.69;5076796;28;20119;-72
2022/09/14 10:16:42;;;;;;;2.92;1.05;;;;;;;27.89;47.54;100616.81;5073888;28;20028;-72
2022/09/14 10:19:18;;;;;;;1.45;0.90;;;;;;;27.39;49.42;100606.69;5071485;28;20051;-72
2022/09/14 10:22:24;;;;;;;2.00;0.73;;;;;;;26.66;49.14;100612.91;5076170;28;20036;-72
2022/09/14 10:25:15;;;;;;;1.75;0.70;;;;;;;26.10;49.97;100616.03;5064820;28;20399;-72
2022/09/14 10:28:16;;;;;;;1.35;0.85;;;;;;;25.44;51.40;100611.66;5072144;28;20090;-72
2022/09/14 10:30:49;;;;;;;2.28;0.85;;;;;;;24.70;52.66;100595.09;5071463;28;20048;-73
2022/09/14 10:33:17;;;;;;;1.50;0.88;;;;;;;24.82;53.72;100602.03;5067202;28;20542;-72
2022/09/14 10:36:07;;;;;;;3.10;0.70;;;;;;;24.64;55.28;100589.63;5066359;28;20037;-72
2022/09/14 10:38:44;;;;;;;2.47;0.50;;;;;;;24.72;54.29;100601.06;5067394;28;20097;-72
2022/09/14 10:41:13;;;;;;;1.80;0.95;;;;;;;24.79;53.31;100602.50;5067823;28;20021;-72
2022/09/14 10:44:04;;;;;;;1.95;0.88;;;;;;;25.13;54.19;100607.78;5070987;28;20052;-72
2022/09/14 10:46:38;;;;;;;1.20;0.65;;;;;;;25.00;53.26;100603.59;5070110;28;20407;-72
2022/09/14 10:49:36;;;;;;;2.40;0.60;;;;;;;25.29;55.00;100603.38;5067953;28;20083;-72
2022/09/14 10:52:08;;;;;;;1.02;0.60;;;;;;;25.45;52.71;100599.75;5070173;28;20024;-72
2022/09/14 10:54:54;;;;;;;1.65;0.80;;;;;;;25.24;53.43;100608.75;5084865;28;20488;-72
2022/09/14 10:57:27;;;;;;;3.33;0.77;;;;;;;24.61;52.87;100602.81;5071798;28;20017;-73
2022/09/14 11:00:12;;;;;;;3.17;1.08;;;;;;;24.82;53.00;100595.78;5069448;28;20502;-72
2022/09/14 11:02:37;;;;;;;2.80;0.82;;;;;;;24.87;53.64;100592.31;5068854;28;20032;-72
2022/09/14 11:05:11;;;;;;;1.50;0.80;;;;;;;25.34;52.87;100587.22;5074233;28;20020;-72
2022/09/14 11:08:02;;;;;;;4.53;0.98;;;;;;;26.12;51.86;100597.66;5067316;28;20075;-72
2022/09/14 11:10:37;;;;;;;2.03;0.70;;;;;;;26.24;50.16;100590.19;5071675;28;20039;-71
2022/09/14 11:13:28;;;;;;;3.38;1.05;;;;;;;26.90;49.80;100597.03;5075538;28;20422;-72
2022/09/14 11:15:57;;;;;;;1.60;0.77;;;;;;;27.39;49.22;100588.53;5075403;28;20040;-72
2022/09/14 11:19:05;;;;;;;2.63;1.33;;;;;;;27.94;48.81;100582.63;5076153;28;20071;-72
2022/09/14 11:21:51;;;;;;;1.48;0.73;;;;;;;28.69;46.11;100577.31;5064470;28;20106;-72
2022/09/14 11:24:38;;;;;;;2.85;0.60;;;;;;;28.49;45.53;100579.03;5074601;28;20143;-72
2022/09/14 11:27:07;;;;;;;1.65;0.60;;;;;;;29.15;44.11;100579.84;5072598;28;20017;-72
2022/09/14 11:29:43;;;;;;;0.85;0.63;;;;;;;30.05;42.42;100591.41;5071684;28;20330;-72